sensor_id;sensor_type;location;lat;lon;timestamp;pressure;altitude;pressure_sealevel;temperature;humidity
45813;BME280;31519;45.408;10.962;2023-08-06T00:01:43;99679.66;;;23.05;79.66
45813;BME280;31519;45.408;10.962;2023-08-06T00:04:11;99680.13;;;23.00;80.58
45813;BME280;31519;45.408;10.962;2023-08-06T00:06:39;99677.25;;;23.10;79.74
45813;BME280;31519;45.408;10.962;2023-08-06T00:09:07;99680.06;;;23.03;80.49
45813;BME280;31519;45.408;10.962;2023-08-06T00:11:36;99673.97;;;22.92;80.96
45813;BME280;31519;45.408;10.962;2023-08-06T00:14:04;99671.38;;;22.85;82.18
45813;BME280;31519;45.408;10.962;2023-08-06T00:16:32;99671.69;;;22.90;81.03
45813;BME280;31519;45.408;10.962;2023-08-06T00:19:00;99661.22;;;22.89;81.37
45813;BME280;31519;45.408;10.962;2023-08-06T00:21:28;99661.91;;;22.63;82.66
45813;BME280;31519;45.408;10.962;2023-08-06T00:23:56;99662.63;;;22.67;82.64
45813;BME280;31519;45.408;10.962;2023-08-06T00:26:23;99659.25;;;22.55;83.42
45813;BME280;31519;45.408;10.962;2023-08-06T00:28:52;99663.75;;;22.69;82.05
45813;BME280;31519;45.408;10.962;2023-08-06T00:31:20;99662.84;;;22.83;80.92
45813;BME280;31519;45.408;10.962;2023-08-06T00:33:48;99655.13;;;22.81;80.34
45813;BME280;31519;45.408;10.962;2023-08-06T00:36:16;99663.28;;;22.81;80.25
45813;BME280;31519;45.408;10.962;2023-08-06T00:38:44;99662.22;;;22.72;81.31
45813;BME280;31519;45.408;10.962;2023-08-06T00:41:12;99665.16;;;22.84;80.27
45813;BME280;31519;45.408;10.962;2023-08-06T00:43:40;99661.19;;;22.92;79.69
45813;BME280;31519;45.408;10.962;2023-08-06T00:46:08;99655.41;;;22.90;79.59
45813;BME280;31519;45.408;10.962;2023-08-06T00:48:36;99666.72;;;22.85;80.15
45813;BME280;31519;45.408;10.962;2023-08-06T00:51:04;99655.91;;;22.78;80.31
45813;BME280;31519;45.408;10.962;2023-08-06T00:53:32;99651.25;;;22.79;80.04
45813;BME280;31519;45.408;10.962;2023-08-06T00:56:00;99649.03;;;22.70;80.36
45813;BME280;31519;45.408;10.962;2023-08-06T00:58:29;99646.31;;;22.70;80.92
45813;BME280;31519;45.408;10.962;2023-08-06T01:00:57;99639.09;;;22.57;81.81
45813;BME280;31519;45.408;10.962;2023-08-06T01:03:25;99639.91;;;22.53;81.27
45813;BME280;31519;45.408;10.962;2023-08-06T01:05:53;99640.75;;;22.47;81.86
45813;BME280;31519;45.408;10.962;2023-08-06T01:08:27;99643.41;;;22.50;83.04
45813;BME280;31519;45.408;10.962;2023-08-06T01:11:07;99632.09;;;22.59;81.85
45813;BME280;31519;45.408;10.962;2023-08-06T01:13:46;99630.53;;;22.58;82.04
45813;BME280;31519;45.408;10.962;2023-08-06T01:16:15;99621.19;;;22.63;81.42
45813;BME280;31519;45.408;10.962;2023-08-06T01:18:44;99623.47;;;22.64;81.24
45813;BME280;31519;45.408;10.962;2023-08-06T01:21:17;99622.91;;;22.49;82.20
45813;BME280;31519;45.408;10.962;2023-08-06T01:26:34;99630.06;;;22.67;80.99
45813;BME280;31519;45.408;10.962;2023-08-06T01:29:14;99626.97;;;22.65;81.87
45813;BME280;31519;45.408;10.962;2023-08-06T01:31:43;99624.53;;;22.77;81.01
45813;BME280;31519;45.408;10.962;2023-08-06T01:34:22;99635.78;;;22.76;81.13
45813;BME280;31519;45.408;10.962;2023-08-06T01:36:51;99635.97;;;22.58;82.02
45813;BME280;31519;45.408;10.962;2023-08-06T01:39:19;99635.31;;;22.47;82.74
45813;BME280;31519;45.408;10.962;2023-08-06T01:41:48;99629.78;;;22.58;81.88
45813;BME280;31519;45.408;10.962;2023-08-06T01:44:17;99635.28;;;22.50;82.80
45813;BME280;31519;45.408;10.962;2023-08-06T01:46:45;99628.81;;;22.37;84.08
45813;BME280;31519;45.408;10.962;2023-08-06T01:49:15;99628.56;;;22.62;83.68
45813;BME280;31519;45.408;10.962;2023-08-06T01:51:42;99621.50;;;22.68;82.05
45813;BME280;31519;45.408;10.962;2023-08-06T01:54:11;99615.53;;;22.46;83.63
45813;BME280;31519;45.408;10.962;2023-08-06T01:56:38;99617.91;;;22.78;81.43
45813;BME280;31519;45.408;10.962;2023-08-06T01:59:06;99612.03;;;22.83;81.40
45813;BME280;31519;45.408;10.962;2023-08-06T02:01:35;99610.34;;;22.93;80.63
45813;BME280;31519;45.408;10.962;2023-08-06T02:04:03;99603.56;;;22.78;81.26
45813;BME280;31519;45.408;10.962;2023-08-06T02:06:31;99597.47;;;22.70;81.90
45813;BME280;31519;45.408;10.962;2023-08-06T02:08:59;99600.94;;;22.71;81.87
45813;BME280;31519;45.408;10.962;2023-08-06T02:11:27;99598.69;;;22.62;82.92
45813;BME280;31519;45.408;10.962;2023-08-06T02:13:55;99594.00;;;22.66;82.41
45813;BME280;31519;45.408;10.962;2023-08-06T02:16:23;99595.38;;;22.81;81.28
45813;BME280;31519;45.408;10.962;2023-08-06T02:18:51;99591.66;;;22.68;81.83
45813;BME280;31519;45.408;10.962;2023-08-06T02:21:19;99581.19;;;22.67;81.70
45813;BME280;31519;45.408;10.962;2023-08-06T02:23:47;99579.81;;;22.85;80.82
45813;BME280;31519;45.408;10.962;2023-08-06T02:26:15;99575.28;;;22.75;80.79
45813;BME280;31519;45.408;10.962;2023-08-06T02:28:44;99562.88;;;22.74;81.11
45813;BME280;31519;45.408;10.962;2023-08-06T02:31:14;99576.78;;;22.80;81.56
45813;BME280;31519;45.408;10.962;2023-08-06T02:33:42;99578.06;;;22.72;81.48
45813;BME280;31519;45.408;10.962;2023-08-06T02:36:11;99579.50;;;22.80;81.11
45813;BME280;31519;45.408;10.962;2023-08-06T02:38:39;99567.00;;;22.86;80.41
45813;BME280;31519;45.408;10.962;2023-08-06T02:41:06;99568.16;;;22.54;82.71
45813;BME280;31519;45.408;10.962;2023-08-06T02:43:35;99556.84;;;22.60;82.52
45813;BME280;31519;45.408;10.962;2023-08-06T02:46:03;99550.84;;;22.45;83.55
45813;BME280;31519;45.408;10.962;2023-08-06T02:48:32;99553.94;;;22.43;83.25
45813;BME280;31519;45.408;10.962;2023-08-06T02:50:59;99554.09;;;22.63;82.19
45813;BME280;31519;45.408;10.962;2023-08-06T02:53:31;99553.72;;;22.61;82.89
45813;BME280;31519;45.408;10.962;2023-08-06T02:56:03;99551.50;;;22.52;85.60
45813;BME280;31519;45.408;10.962;2023-08-06T02:58:45;99539.47;;;22.53;89.25
45813;BME280;31519;45.408;10.962;2023-08-06T03:01:27;99546.28;;;22.65;90.24
45813;BME280;31519;45.408;10.962;2023-08-06T03:04:02;99544.47;;;22.55;91.17
45813;BME280;31519;45.408;10.962;2023-08-06T03:06:35;99541.53;;;22.42;92.86
45813;BME280;31519;45.408;10.962;2023-08-06T03:09:04;99535.66;;;22.17;95.95
45813;BME280;31519;45.408;10.962;2023-08-06T03:11:32;99534.78;;;22.27;95.74
45813;BME280;31519;45.408;10.962;2023-08-06T03:14:05;99532.91;;;22.51;95.80
45813;BME280;31519;45.408;10.962;2023-08-06T03:16:34;99526.19;;;22.63;94.68
45813;BME280;31519;45.408;10.962;2023-08-06T03:19:03;99521.38;;;22.74;93.88
45813;BME280;31519;45.408;10.962;2023-08-06T03:21:31;99526.81;;;22.43;96.41
45813;BME280;31519;45.408;10.962;2023-08-06T03:24:01;99511.69;;;22.42;97.71
45813;BME280;31519;45.408;10.962;2023-08-06T03:26:32;99513.13;;;22.54;96.80
45813;BME280;31519;45.408;10.962;2023-08-06T03:29:00;99513.03;;;22.31;98.74
45813;BME280;31519;45.408;10.962;2023-08-06T03:31:30;99525.41;;;22.32;97.50
45813;BME280;31519;45.408;10.962;2023-08-06T03:34:00;99526.91;;;22.36;96.58
45813;BME280;31519;45.408;10.962;2023-08-06T03:36:30;99530.06;;;22.31;96.74
45813;BME280;31519;45.408;10.962;2023-08-06T03:38:58;99522.50;;;22.16;97.05
45813;BME280;31519;45.408;10.962;2023-08-06T03:41:27;99522.78;;;22.25;95.37
45813;BME280;31519;45.408;10.962;2023-08-06T03:43:56;99523.72;;;22.11;95.54
45813;BME280;31519;45.408;10.962;2023-08-06T03:46:26;99524.75;;;22.21;95.50
45813;BME280;31519;45.408;10.962;2023-08-06T03:48:54;99523.88;;;22.31;95.61
45813;BME280;31519;45.408;10.962;2023-08-06T03:51:23;99522.44;;;22.23;94.36
45813;BME280;31519;45.408;10.962;2023-08-06T03:53:53;99517.47;;;22.14;94.65
45813;BME280;31519;45.408;10.962;2023-08-06T03:56:21;99509.59;;;22.23;93.77
45813;BME280;31519;45.408;10.962;2023-08-06T03:58:51;99504.50;;;22.29;93.09
45813;BME280;31519;45.408;10.962;2023-08-06T04:01:18;99502.97;;;22.28;92.63
45813;BME280;31519;45.408;10.962;2023-08-06T04:03:48;99495.47;;;22.05;94.75
45813;BME280;31519;45.408;10.962;2023-08-06T04:06:16;99492.97;;;22.21;95.17
45813;BME280;31519;45.408;10.962;2023-08-06T04:08:44;99496.13;;;22.46;93.29
45813;BME280;31519;45.408;10.962;2023-08-06T04:11:12;99492.25;;;22.47;93.59
45813;BME280;31519;45.408;10.962;2023-08-06T04:13:43;99494.34;;;22.36;92.97
45813;BME280;31519;45.408;10.962;2023-08-06T04:16:11;99499.69;;;22.13;94.69
45813;BME280;31519;45.408;10.962;2023-08-06T04:18:42;99495.81;;;22.10;95.01
45813;BME280;31519;45.408;10.962;2023-08-06T04:21:09;99487.44;;;21.98;95.63
45813;BME280;31519;45.408;10.962;2023-08-06T04:23:37;99482.81;;;21.91;96.58
45813;BME280;31519;45.408;10.962;2023-08-06T04:26:07;99480.41;;;22.04;95.60
45813;BME280;31519;45.408;10.962;2023-08-06T04:28:36;99484.91;;;22.14;94.49
45813;BME280;31519;45.408;10.962;2023-08-06T04:31:04;99487.63;;;22.14;93.58
45813;BME280;31519;45.408;10.962;2023-08-06T04:33:34;99483.25;;;22.24;94.01
45813;BME280;31519;45.408;10.962;2023-08-06T04:36:06;99487.22;;;22.16;94.41
45813;BME280;31519;45.408;10.962;2023-08-06T04:41:02;99477.28;;;22.05;96.57
45813;BME280;31519;45.408;10.962;2023-08-06T04:43:36;99475.50;;;21.88;98.05
45813;BME280;31519;45.408;10.962;2023-08-06T04:46:05;99480.88;;;21.92;98.62
45813;BME280;31519;45.408;10.962;2023-08-06T04:48:33;99483.47;;;22.06;99.72
45813;BME280;31519;45.408;10.962;2023-08-06T04:51:01;99483.41;;;22.09;98.11
45813;BME280;31519;45.408;10.962;2023-08-06T04:53:30;99482.03;;;21.98;97.97
45813;BME280;31519;45.408;10.962;2023-08-06T04:55:57;99481.03;;;21.78;97.26
45813;BME280;31519;45.408;10.962;2023-08-06T04:58:26;99478.94;;;21.55;98.77
45813;BME280;31519;45.408;10.962;2023-08-06T05:00:54;99487.19;;;21.44;99.30
45813;BME280;31519;45.408;10.962;2023-08-06T05:03:22;99478.56;;;21.56;98.77
45813;BME280;31519;45.408;10.962;2023-08-06T05:05:50;99473.38;;;21.69;96.87
45813;BME280;31519;45.408;10.962;2023-08-06T05:08:18;99471.28;;;21.46;97.24
45813;BME280;31519;45.408;10.962;2023-08-06T05:10:46;99479.81;;;21.82;96.15
45813;BME280;31519;45.408;10.962;2023-08-06T05:13:13;99487.47;;;21.91;95.49
45813;BME280;31519;45.408;10.962;2023-08-06T05:15:42;99491.72;;;21.92;95.08
45813;BME280;31519;45.408;10.962;2023-08-06T05:18:10;99501.66;;;21.72;96.23
45813;BME280;31519;45.408;10.962;2023-08-06T05:20:40;99508.75;;;21.58;98.04
45813;BME280;31519;45.408;10.962;2023-08-06T05:23:08;99513.47;;;22.26;92.15
45813;BME280;31519;45.408;10.962;2023-08-06T05:25:37;99509.34;;;22.75;89.35
45813;BME280;31519;45.408;10.962;2023-08-06T05:28:05;99519.50;;;22.71;90.15
45813;BME280;31519;45.408;10.962;2023-08-06T05:30:33;99511.16;;;22.85;89.53
45813;BME280;31519;45.408;10.962;2023-08-06T05:33:01;99512.44;;;23.04;88.36
45813;BME280;31519;45.408;10.962;2023-08-06T05:35:29;99508.28;;;23.46;85.69
45813;BME280;31519;45.408;10.962;2023-08-06T05:37:59;99511.66;;;23.53;84.78
45813;BME280;31519;45.408;10.962;2023-08-06T05:40:27;99507.28;;;23.59;84.54
45813;BME280;31519;45.408;10.962;2023-08-06T05:42:55;99502.88;;;23.65;82.57
45813;BME280;31519;45.408;10.962;2023-08-06T05:45:23;99509.84;;;23.43;79.92
45813;BME280;31519;45.408;10.962;2023-08-06T05:47:51;99512.91;;;22.38;86.76
45813;BME280;31519;45.408;10.962;2023-08-06T05:50:21;99517.22;;;22.66;nan
45813;BME280;31519;45.408;10.962;2023-08-06T05:52:49;99519.03;;;22.76;86.29
45813;BME280;31519;45.408;10.962;2023-08-06T05:55:17;99518.00;;;23.66;81.52
45813;BME280;31519;45.408;10.962;2023-08-06T05:57:45;99515.34;;;23.86;81.44
45813;BME280;31519;45.408;10.962;2023-08-06T06:00:13;99519.88;;;24.12;80.11
45813;BME280;31519;45.408;10.962;2023-08-06T06:02:41;99506.75;;;24.07;80.05
45813;BME280;31519;45.408;10.962;2023-08-06T06:05:09;99520.47;;;23.80;80.51
45813;BME280;31519;45.408;10.962;2023-08-06T06:07:37;99519.25;;;23.62;80.47
45813;BME280;31519;45.408;10.962;2023-08-06T06:10:05;99529.09;;;24.38;77.00
45813;BME280;31519;45.408;10.962;2023-08-06T06:12:34;99536.44;;;24.77;75.73
45813;BME280;31519;45.408;10.962;2023-08-06T06:15:01;99545.88;;;24.92;74.66
45813;BME280;31519;45.408;10.962;2023-08-06T06:17:31;99543.25;;;24.85;73.64
45813;BME280;31519;45.408;10.962;2023-08-06T06:19:59;99548.75;;;24.06;77.71
45813;BME280;31519;45.408;10.962;2023-08-06T06:22:27;99541.59;;;24.36;77.92
45813;BME280;31519;45.408;10.962;2023-08-06T06:24:56;99545.13;;;24.52;77.15
45813;BME280;31519;45.408;10.962;2023-08-06T06:27:24;99543.50;;;24.19;76.59
45813;BME280;31519;45.408;10.962;2023-08-06T06:29:51;99545.31;;;23.82;78.95
45813;BME280;31519;45.408;10.962;2023-08-06T06:32:22;99538.19;;;23.89;75.03
45813;BME280;31519;45.408;10.962;2023-08-06T06:34:50;99537.13;;;24.45;73.99
45813;BME280;31519;45.408;10.962;2023-08-06T06:37:18;99544.50;;;24.64;71.40
45813;BME280;31519;45.408;10.962;2023-08-06T06:39:46;99547.81;;;24.36;74.23
45813;BME280;31519;45.408;10.962;2023-08-06T06:42:14;99547.13;;;24.52;73.69
45813;BME280;31519;45.408;10.962;2023-08-06T06:44:46;99544.59;;;24.21;69.97
45813;BME280;31519;45.408;10.962;2023-08-06T06:47:14;99544.75;;;24.90;68.75
45813;BME280;31519;45.408;10.962;2023-08-06T06:49:42;99540.63;;;25.34;65.72
45813;BME280;31519;45.408;10.962;2023-08-06T06:52:11;99550.06;;;25.45;65.30
45813;BME280;31519;45.408;10.962;2023-08-06T06:54:39;99546.56;;;25.12;67.96
45813;BME280;31519;45.408;10.962;2023-08-06T06:57:07;99543.94;;;25.57;65.08
45813;BME280;31519;45.408;10.962;2023-08-06T06:59:35;99553.47;;;26.11;63.56
45813;BME280;31519;45.408;10.962;2023-08-06T07:02:03;99558.78;;;25.56;64.58
45813;BME280;31519;45.408;10.962;2023-08-06T07:04:31;99561.81;;;25.58;64.81
45813;BME280;31519;45.408;10.962;2023-08-06T07:06:59;99560.59;;;24.95;66.95
45813;BME280;31519;45.408;10.962;2023-08-06T07:09:27;99556.09;;;24.85;67.71
45813;BME280;31519;45.408;10.962;2023-08-06T07:11:55;99555.50;;;25.45;66.12
45813;BME280;31519;45.408;10.962;2023-08-06T07:14:25;99552.00;;;25.45;65.55
45813;BME280;31519;45.408;10.962;2023-08-06T07:16:53;99562.63;;;26.33;63.09
45813;BME280;31519;45.408;10.962;2023-08-06T07:19:21;99558.63;;;26.63;62.62
45813;BME280;31519;45.408;10.962;2023-08-06T07:21:49;99557.28;;;25.36;62.00
45813;BME280;31519;45.408;10.962;2023-08-06T07:24:19;99553.72;;;25.06;59.77
45813;BME280;31519;45.408;10.962;2023-08-06T07:26:47;99548.44;;;25.32;59.15
45813;BME280;31519;45.408;10.962;2023-08-06T07:29:15;99552.06;;;25.90;58.95
45813;BME280;31519;45.408;10.962;2023-08-06T07:31:48;99555.75;;;25.67;58.92
45813;BME280;31519;45.408;10.962;2023-08-06T07:34:18;99558.66;;;26.21;57.79
45813;BME280;31519;45.408;10.962;2023-08-06T07:36:46;99557.13;;;25.75;58.00
45813;BME280;31519;45.408;10.962;2023-08-06T07:39:14;99562.28;;;26.31;57.67
45813;BME280;31519;45.408;10.962;2023-08-06T07:41:45;99564.00;;;26.66;57.16
45813;BME280;31519;45.408;10.962;2023-08-06T07:44:13;99567.31;;;26.32;56.63
45813;BME280;31519;45.408;10.962;2023-08-06T07:46:41;99565.25;;;26.36;59.22
45813;BME280;31519;45.408;10.962;2023-08-06T07:49:09;99561.81;;;26.74;59.82
45813;BME280;31519;45.408;10.962;2023-08-06T07:51:38;99560.66;;;27.00;59.00
45813;BME280;31519;45.408;10.962;2023-08-06T07:54:06;99556.69;;;27.14;58.11
45813;BME280;31519;45.408;10.962;2023-08-06T07:56:35;99551.00;;;27.33;56.65
45813;BME280;31519;45.408;10.962;2023-08-06T07:59:04;99548.69;;;27.45;54.21
45813;BME280;31519;45.408;10.962;2023-08-06T08:01:32;99545.09;;;26.72;53.08
45813;BME280;31519;45.408;10.962;2023-08-06T08:04:00;99543.63;;;26.42;55.19
45813;BME280;31519;45.408;10.962;2023-08-06T08:06:28;99553.22;;;26.05;51.00
45813;BME280;31519;45.408;10.962;2023-08-06T08:08:56;99547.13;;;26.42;51.22
45813;BME280;31519;45.408;10.962;2023-08-06T08:11:25;99542.75;;;26.45;50.62
45813;BME280;31519;45.408;10.962;2023-08-06T08:13:53;99537.75;;;26.56;50.90
45813;BME280;31519;45.408;10.962;2023-08-06T08:16:21;99526.84;;;26.56;50.77
45813;BME280;31519;45.408;10.962;2023-08-06T08:18:49;99538.88;;;26.71;51.52
45813;BME280;31519;45.408;10.962;2023-08-06T08:21:17;99544.97;;;26.63;51.70
45813;BME280;31519;45.408;10.962;2023-08-06T08:23:45;99535.38;;;26.71;50.72
45813;BME280;31519;45.408;10.962;2023-08-06T08:26:13;99541.91;;;26.73;52.03
45813;BME280;31519;45.408;10.962;2023-08-06T08:28:41;99542.38;;;26.84;52.06
45813;BME280;31519;45.408;10.962;2023-08-06T08:31:09;99547.38;;;26.61;54.01
45813;BME280;31519;45.408;10.962;2023-08-06T08:33:38;99536.31;;;26.52;53.79
45813;BME280;31519;45.408;10.962;2023-08-06T08:36:07;99549.19;;;26.26;55.53
45813;BME280;31519;45.408;10.962;2023-08-06T08:38:35;99549.34;;;26.73;55.07
45813;BME280;31519;45.408;10.962;2023-08-06T08:41:03;99547.63;;;26.92;55.10
45813;BME280;31519;45.408;10.962;2023-08-06T08:43:31;99554.97;;;26.95;57.35
45813;BME280;31519;45.408;10.962;2023-08-06T08:46:00;99543.13;;;26.72;56.87
45813;BME280;31519;45.408;10.962;2023-08-06T08:48:30;99539.81;;;26.39;58.45
45813;BME280;31519;45.408;10.962;2023-08-06T08:50:58;99550.44;;;25.92;58.65
45813;BME280;31519;45.408;10.962;2023-08-06T08:53:26;99553.59;;;26.49;58.06
45813;BME280;31519;45.408;10.962;2023-08-06T08:55:54;99554.41;;;26.87;56.53
45813;BME280;31519;45.408;10.962;2023-08-06T08:58:22;99558.69;;;26.88;55.81
45813;BME280;31519;45.408;10.962;2023-08-06T09:00:51;99557.69;;;26.28;56.80
45813;BME280;31519;45.408;10.962;2023-08-06T09:03:19;99572.03;;;26.44;56.29
45813;BME280;31519;45.408;10.962;2023-08-06T09:05:49;99557.06;;;27.03;54.77
45813;BME280;31519;45.408;10.962;2023-08-06T09:08:18;99563.00;;;26.73;55.04
45813;BME280;31519;45.408;10.962;2023-08-06T09:10:48;99565.75;;;27.36;53.92
45813;BME280;31519;45.408;10.962;2023-08-06T09:13:17;99573.22;;;27.10;54.42
45813;BME280;31519;45.408;10.962;2023-08-06T09:15:45;99570.56;;;27.32;53.96
45813;BME280;31519;45.408;10.962;2023-08-06T09:18:13;99577.06;;;27.13;53.50
45813;BME280;31519;45.408;10.962;2023-08-06T09:20:41;99574.34;;;27.13;53.34
45813;BME280;31519;45.408;10.962;2023-08-06T09:23:10;99570.47;;;27.48;51.31
45813;BME280;31519;45.408;10.962;2023-08-06T09:25:38;99575.16;;;27.60;51.28
45813;BME280;31519;45.408;10.962;2023-08-06T09:28:09;99574.31;;;27.00;51.68
45813;BME280;31519;45.408;10.962;2023-08-06T09:30:37;99581.22;;;27.17;52.17
45813;BME280;31519;45.408;10.962;2023-08-06T09:33:09;99585.13;;;26.37;52.38
45813;BME280;31519;45.408;10.962;2023-08-06T09:35:42;99577.13;;;26.84;51.94
45813;BME280;31519;45.408;10.962;2023-08-06T09:38:10;99575.41;;;27.03;50.83
45813;BME280;31519;45.408;10.962;2023-08-06T09:40:39;99583.41;;;26.97;50.86
45813;BME280;31519;45.408;10.962;2023-08-06T09:43:07;99580.22;;;27.24;50.15
45813;BME280;31519;45.408;10.962;2023-08-06T09:45:36;99582.09;;;26.89;50.28
45813;BME280;31519;45.408;10.962;2023-08-06T09:48:05;99579.22;;;26.80;50.64
45813;BME280;31519;45.408;10.962;2023-08-06T09:50:37;99583.16;;;27.55;49.67
45813;BME280;31519;45.408;10.962;2023-08-06T09:53:06;99582.19;;;27.83;49.27
45813;BME280;31519;45.408;10.962;2023-08-06T09:55:35;99594.50;;;27.66;49.79
45813;BME280;31519;45.408;10.962;2023-08-06T09:58:03;99590.63;;;27.16;50.63
45813;BME280;31519;45.408;10.962;2023-08-06T10:00:31;99587.19;;;27.63;49.25
45813;BME280;31519;45.408;10.962;2023-08-06T10:03:04;99589.03;;;27.66;49.03
45813;BME280;31519;45.408;10.962;2023-08-06T10:05:35;99579.41;;;27.96;48.20
45813;BME280;31519;45.408;10.962;2023-08-06T10:08:03;99582.09;;;28.21;47.54
45813;BME280;31519;45.408;10.962;2023-08-06T10:10:33;99568.53;;;28.70;47.34
45813;BME280;31519;45.408;10.962;2023-08-06T10:13:02;99565.63;;;28.43;47.32
45813;BME280;31519;45.408;10.962;2023-08-06T10:15:32;99573.97;;;28.61;46.90
45813;BME280;31519;45.408;10.962;2023-08-06T10:18:00;99571.34;;;27.58;48.57
45813;BME280;31519;45.408;10.962;2023-08-06T10:20:32;99581.94;;;27.56;49.19
45813;BME280;31519;45.408;10.962;2023-08-06T10:23:04;99569.75;;;28.04;49.29
45813;BME280;31519;45.408;10.962;2023-08-06T10:25:33;99573.72;;;28.99;47.22
45813;BME280;31519;45.408;10.962;2023-08-06T10:28:10;99574.41;;;28.81;46.19
45813;BME280;31519;45.408;10.962;2023-08-06T10:30:44;99569.94;;;29.55;44.56
45813;BME280;31519;45.408;10.962;2023-08-06T10:33:12;99563.13;;;29.19;44.65
45813;BME280;31519;45.408;10.962;2023-08-06T10:38:14;99567.66;;;29.71;44.12
45813;BME280;31519;45.408;10.962;2023-08-06T10:41:04;99563.72;;;30.09;43.58
45813;BME280;31519;45.408;10.962;2023-08-06T10:43:34;99565.41;;;29.70;43.68
45813;BME280;31519;45.408;10.962;2023-08-06T10:46:03;99569.16;;;29.45;43.68
45813;BME280;31519;45.408;10.962;2023-08-06T10:48:36;99562.16;;;30.44;42.88
45813;BME280;31519;45.408;10.962;2023-08-06T10:51:08;99562.03;;;30.02;42.92
45813;BME280;31519;45.408;10.962;2023-08-06T10:53:37;99566.50;;;29.23;46.02
45813;BME280;31519;45.408;10.962;2023-08-06T10:56:12;99567.06;;;29.09;46.75
45813;BME280;31519;45.408;10.962;2023-08-06T10:58:40;99567.16;;;28.44;48.46
45813;BME280;31519;45.408;10.962;2023-08-06T11:01:09;99567.41;;;28.58;47.51
45813;BME280;31519;45.408;10.962;2023-08-06T11:03:37;99563.31;;;28.85;45.71
45813;BME280;31519;45.408;10.962;2023-08-06T11:06:09;99573.00;;;29.07;44.88
45813;BME280;31519;45.408;10.962;2023-08-06T11:08:38;99567.78;;;29.40;43.09
45813;BME280;31519;45.408;10.962;2023-08-06T11:13:38;99569.03;;;29.85;42.94
45813;BME280;31519;45.408;10.962;2023-08-06T11:16:07;99570.94;;;29.88;42.99
45813;BME280;31519;45.408;10.962;2023-08-06T11:18:36;99557.00;;;29.73;42.50
45813;BME280;31519;45.408;10.962;2023-08-06T11:21:04;99553.41;;;29.27;43.24
45813;BME280;31519;45.408;10.962;2023-08-06T11:23:32;99545.53;;;30.48;41.41
45813;BME280;31519;45.408;10.962;2023-08-06T11:26:01;99549.53;;;30.28;39.51
45813;BME280;31519;45.408;10.962;2023-08-06T11:28:28;99543.91;;;30.05;38.71
45813;BME280;31519;45.408;10.962;2023-08-06T11:30:57;99542.97;;;29.99;38.53
45813;BME280;31519;45.408;10.962;2023-08-06T11:33:28;99550.59;;;30.13;37.57
45813;BME280;31519;45.408;10.962;2023-08-06T11:35:58;99542.91;;;31.28;36.54
45813;BME280;31519;45.408;10.962;2023-08-06T11:38:29;99539.41;;;31.51;35.85
45813;BME280;31519;45.408;10.962;2023-08-06T11:40:57;99532.69;;;32.05;36.18
45813;BME280;31519;45.408;10.962;2023-08-06T11:43:25;99520.47;;;32.50;34.63
45813;BME280;31519;45.408;10.962;2023-08-06T11:45:55;99520.13;;;31.51;35.67
45813;BME280;31519;45.408;10.962;2023-08-06T11:48:23;99518.56;;;32.27;35.17
45813;BME280;31519;45.408;10.962;2023-08-06T11:50:53;99523.81;;;32.40;34.27
45813;BME280;31519;45.408;10.962;2023-08-06T11:53:21;99525.88;;;32.60;33.54
45813;BME280;31519;45.408;10.962;2023-08-06T11:55:49;99522.44;;;32.50;32.64
45813;BME280;31519;45.408;10.962;2023-08-06T11:58:17;99522.28;;;32.09;32.91
45813;BME280;31519;45.408;10.962;2023-08-06T12:00:46;99523.41;;;32.62;33.01
45813;BME280;31519;45.408;10.962;2023-08-06T12:03:14;99526.16;;;31.64;33.72
45813;BME280;31519;45.408;10.962;2023-08-06T12:05:44;99526.06;;;32.27;33.08
45813;BME280;31519;45.408;10.962;2023-08-06T12:08:14;99533.84;;;32.87;32.25
45813;BME280;31519;45.408;10.962;2023-08-06T12:10:42;99530.34;;;33.07;32.14
45813;BME280;31519;45.408;10.962;2023-08-06T12:13:10;99534.22;;;32.94;31.94
45813;BME280;31519;45.408;10.962;2023-08-06T12:15:39;99536.41;;;33.25;31.32
45813;BME280;31519;45.408;10.962;2023-08-06T12:18:07;99535.13;;;33.41;30.58
45813;BME280;31519;45.408;10.962;2023-08-06T12:20:35;99532.16;;;31.39;33.64
45813;BME280;31519;45.408;10.962;2023-08-06T12:23:03;99541.22;;;31.78;33.10
45813;BME280;31519;45.408;10.962;2023-08-06T12:25:31;99536.22;;;32.94;31.64
45813;BME280;31519;45.408;10.962;2023-08-06T12:27:59;99528.06;;;33.60;31.03
45813;BME280;31519;45.408;10.962;2023-08-06T12:30:27;99534.00;;;33.73;30.34
45813;BME280;31519;45.408;10.962;2023-08-06T12:32:55;99537.56;;;34.00;30.42
45813;BME280;31519;45.408;10.962;2023-08-06T12:35:24;99549.19;;;33.83;30.76
45813;BME280;31519;45.408;10.962;2023-08-06T12:37:53;99543.28;;;33.96;29.36
45813;BME280;31519;45.408;10.962;2023-08-06T12:40:22;99542.84;;;34.23;28.49
45813;BME280;31519;45.408;10.962;2023-08-06T12:43:04;99544.75;;;34.43;28.02
45813;BME280;31519;45.408;10.962;2023-08-06T12:45:32;99545.69;;;34.35;26.47
45813;BME280;31519;45.408;10.962;2023-08-06T12:48:00;99550.69;;;34.05;27.28
45813;BME280;31519;45.408;10.962;2023-08-06T12:50:28;99551.78;;;33.67;27.60
45813;BME280;31519;45.408;10.962;2023-08-06T12:52:56;99548.81;;;33.15;28.02
45813;BME280;31519;45.408;10.962;2023-08-06T12:55:24;99549.91;;;32.88;27.93
45813;BME280;31519;45.408;10.962;2023-08-06T12:57:52;99558.09;;;31.71;29.35
45813;BME280;31519;45.408;10.962;2023-08-06T13:00:26;99558.00;;;32.19;29.76
45813;BME280;31519;45.408;10.962;2023-08-06T13:02:54;99558.00;;;32.19;29.62
45813;BME280;31519;45.408;10.962;2023-08-06T13:05:22;99560.31;;;32.20;29.80
45813;BME280;31519;45.408;10.962;2023-08-06T13:07:50;99556.63;;;31.99;29.76
45813;BME280;31519;45.408;10.962;2023-08-06T13:10:18;99540.16;;;32.43;29.35